createdAt,value
2018-11-03T00:00:04.639Z,75.82
2018-11-03T00:01:04.979Z,76.02
2018-11-03T00:02:04.585Z,75.83
2018-11-03T00:03:04.652Z,75.91
2018-11-03T00:04:04.612Z,75.86
2018-11-03T00:05:04.627Z,75.91
2018-11-03T00:06:04.893Z,75.93
2018-11-03T00:07:04.612Z,76.24
2018-11-03T00:08:04.589Z,76.28
2018-11-03T00:09:04.595Z,76.32
2018-11-03T00:10:04.631Z,76.46
2018-11-03T00:11:04.593Z,76.38
2018-11-03T00:12:04.595Z,76.45
2018-11-03T00:13:04.618Z,76.3
2018-11-03T00:14:04.645Z,76.21
2018-11-03T00:15:04.681Z,76.25
2018-11-03T00:16:05.860Z,76.28
2018-11-03T00:17:04.644Z,76.13
2018-11-03T00:18:04.782Z,76.17
2018-11-03T00:19:04.607Z,76.08
2018-11-03T00:20:04.733Z,76.07
2018-11-03T00:21:04.786Z,75.96
2018-11-03T00:22:04.622Z,76.01
2018-11-03T00:23:04.603Z,76
2018-11-03T00:24:04.993Z,76.03
2018-11-03T00:25:04.599Z,76.05
2018-11-03T00:26:04.614Z,76.11
2018-11-03T00:27:04.623Z,76.04
2018-11-03T00:28:04.609Z,75.98
2018-11-03T00:29:04.646Z,75.93
2018-11-03T00:30:04.830Z,75.71
2018-11-03T00:31:04.950Z,75.7
2018-11-03T00:32:04.636Z,75.62
2018-11-03T00:33:04.972Z,75.7
2018-11-03T00:34:04.634Z,75.63
2018-11-03T00:35:04.589Z,75.7
2018-11-03T00:36:04.901Z,76.16
2018-11-03T00:37:04.649Z,76.22
2018-11-03T00:38:04.624Z,76.3
2018-11-03T00:39:04.600Z,76.37
2018-11-03T00:40:05.136Z,76.27
2018-11-03T00:41:04.593Z,76.14
2018-11-03T00:42:04.598Z,76.15
2018-11-03T00:43:04.721Z,76
2018-11-03T00:44:04.701Z,75.92
2018-11-03T00:45:04.793Z,75.75
2018-11-03T00:46:04.633Z,75.52
2018-11-03T00:47:04.577Z,75.54
2018-11-03T00:48:05.437Z,75.72
2018-11-03T00:49:04.595Z,75.34
2018-11-03T00:50:04.630Z,75.61
2018-11-03T00:51:04.632Z,75.75
2018-11-03T00:52:04.679Z,75.72
2018-11-03T00:53:04.764Z,75.51
2018-11-03T00:54:05.377Z,75.54
2018-11-03T00:55:04.582Z,75.35
2018-11-03T00:56:06.033Z,75.34
2018-11-03T00:57:04.587Z,75.28
2018-11-03T00:58:04.574Z,75.53
2018-11-03T00:59:04.545Z,75.4
2018-11-03T01:00:04.522Z,75.4
2018-11-03T01:01:04.528Z,75.46
2018-11-03T01:02:04.619Z,75.1
2018-11-03T01:03:04.809Z,75.09
2018-11-03T01:04:04.540Z,75.17
2018-11-03T01:05:04.678Z,75.27
2018-11-03T01:06:06.129Z,74.86
2018-11-03T01:07:04.617Z,75.03
2018-11-03T01:08:04.916Z,75.12
2018-11-03T01:09:04.639Z,75.18
2018-11-03T01:10:04.530Z,75.23
2018-11-03T01:11:04.529Z,75.16
2018-11-03T01:12:04.843Z,75.5
2018-11-03T01:13:04.613Z,75.38
2018-11-03T01:14:04.483Z,75.38
2018-11-03T01:15:04.811Z,75.51
2018-11-03T01:16:04.510Z,75.42
2018-11-03T01:17:04.493Z,75.34
2018-11-03T01:18:04.597Z,75.27
2018-11-03T01:19:04.686Z,75.21
2018-11-03T01:20:04.664Z,75.26
2018-11-03T01:21:04.518Z,75.49
2018-11-03T01:22:04.687Z,75.49
2018-11-03T01:23:04.663Z,75.16
2018-11-03T01:24:05.132Z,74.98
2018-11-03T01:25:04.490Z,75.04
2018-11-03T01:26:04.496Z,75.12
2018-11-03T01:27:04.498Z,74.93
2018-11-03T01:28:04.475Z,74.66
2018-11-03T01:29:04.589Z,74.54
2018-11-03T01:30:04.449Z,74.53
2018-11-03T01:31:04.463Z,74.8
2018-11-03T01:32:04.462Z,74.87
2018-11-03T01:33:04.474Z,74.49
2018-11-03T01:34:04.462Z,74.49
2018-11-03T01:35:04.492Z,74.72
2018-11-03T01:36:04.467Z,74.61
2018-11-03T01:37:04.473Z,74.62
2018-11-03T01:38:04.490Z,74.84
2018-11-03T01:39:04.462Z,74.35
2018-11-03T01:40:04.496Z,74.47
2018-11-03T01:41:04.471Z,74.36
2018-11-03T01:42:04.541Z,74.02
2018-11-03T01:43:04.505Z,74.29
2018-11-03T01:44:04.439Z,74.03
2018-11-03T01:45:04.460Z,74.01
2018-11-03T01:46:05.351Z,73.96
2018-11-03T01:47:04.810Z,74.15
2018-11-03T01:48:04.569Z,74.22
2018-11-03T01:49:04.683Z,73.97
2018-11-03T01:50:05.041Z,73.89
2018-11-03T01:51:04.597Z,73.81
2018-11-03T01:52:04.698Z,73.79
2018-11-03T01:53:04.783Z,73.94
2018-11-03T01:54:04.454Z,74.08
2018-11-03T01:55:04.563Z,74.02
2018-11-03T01:56:05.932Z,74.18
2018-11-03T01:57:04.515Z,73.99
2018-11-03T01:58:04.517Z,74
2018-11-03T01:59:04.390Z,74.22
2018-11-03T02:00:04.673Z,74.05
2018-11-03T02:01:04.533Z,74.11
2018-11-03T02:02:04.445Z,74.07
2018-11-03T02:03:04.497Z,74.07
2018-11-03T02:04:04.614Z,74.48
2018-11-03T02:05:04.449Z,74.39
2018-11-03T02:06:05.592Z,74.73
2018-11-03T02:07:04.471Z,74.69
2018-11-03T02:08:04.541Z,74.67
2018-11-03T02:09:04.546Z,74.41
2018-11-03T02:10:05.158Z,74.73
2018-11-03T02:11:04.540Z,74.55
2018-11-03T02:12:05.267Z,74.62
2018-11-03T02:13:04.455Z,74.62
2018-11-03T02:14:04.492Z,74.36
2018-11-03T02:15:04.599Z,74.39
2018-11-03T02:16:05.014Z,74.24
2018-11-03T02:17:04.714Z,74.3
2018-11-03T02:18:04.574Z,74.54
2018-11-03T02:19:04.475Z,74.41
2018-11-03T02:20:05.026Z,74.47
2018-11-03T02:21:04.884Z,74.62
2018-11-03T02:22:04.504Z,74.37
2018-11-03T02:23:04.521Z,74.15
2018-11-03T02:24:04.723Z,74.35
2018-11-03T02:25:04.773Z,74.34
2018-11-03T02:26:04.530Z,74.45
2018-11-03T02:27:04.581Z,74.46
2018-11-03T02:28:04.406Z,74.74
2018-11-03T02:29:04.503Z,74.57
2018-11-03T02:30:05.262Z,74.57
2018-11-03T02:31:04.390Z,74.78
2018-11-03T02:32:04.784Z,74.56
2018-11-03T02:33:04.530Z,74.56
2018-11-03T02:34:04.612Z,74.48
2018-11-03T02:35:04.424Z,74.53
2018-11-03T02:36:04.444Z,74.54
2018-11-03T02:37:05.807Z,74.54
2018-11-03T02:38:04.713Z,74.55
2018-11-03T02:39:04.964Z,75.15
2018-11-03T02:40:05.052Z,75.08
2018-11-03T02:41:04.810Z,75.02
2018-11-03T02:42:04.745Z,75.31
2018-11-03T02:43:04.637Z,75.22
2018-11-03T02:44:04.554Z,75.49
2018-11-03T02:45:04.588Z,75.48
2018-11-03T02:46:04.761Z,75.41
2018-11-03T02:47:05.772Z,75.71
2018-11-03T02:48:04.506Z,75.75
2018-11-03T02:49:04.468Z,75.8
2018-11-03T02:50:04.817Z,75.85
2018-11-03T02:51:04.523Z,75.76
2018-11-03T02:52:04.372Z,75.55
2018-11-03T02:53:04.755Z,75.37
2018-11-03T02:54:04.353Z,75.18
2018-11-03T02:55:04.486Z,75.35
2018-11-03T02:56:04.433Z,75.34
2018-11-03T02:57:05.741Z,75.42
2018-11-03T02:58:04.354Z,75.4
2018-11-03T02:59:04.460Z,75.26
2018-11-03T03:00:04.354Z,75.2
2018-11-03T03:01:04.383Z,75.43
2018-11-03T03:02:04.453Z,75.06
2018-11-03T03:03:04.515Z,75.05
2018-11-03T03:04:04.346Z,75
2018-11-03T03:05:04.406Z,75.32
2018-11-03T03:06:04.363Z,75.37
2018-11-03T03:07:05.602Z,75.41
2018-11-03T03:08:04.321Z,75.3
2018-11-03T03:09:04.465Z,75.44
2018-11-03T03:10:04.393Z,75.22
2018-11-03T03:11:04.354Z,75.34
2018-11-03T03:12:04.378Z,75.34
2018-11-03T03:13:04.432Z,75.18
2018-11-03T03:14:04.400Z,75.33
2018-11-03T03:15:04.328Z,75.38
2018-11-03T03:16:04.302Z,75.27
2018-11-03T03:17:05.366Z,75.37
2018-11-03T03:18:04.308Z,75.41
2018-11-03T03:19:04.378Z,75.67
2018-11-03T03:20:04.455Z,75.97
2018-11-03T03:21:04.374Z,75.88
2018-11-03T03:22:04.380Z,75.75
2018-11-03T03:23:04.424Z,75.74
2018-11-03T03:24:04.312Z,75.66
2018-11-03T03:25:04.820Z,75.52
2018-11-03T03:26:05.042Z,75.4
2018-11-03T03:27:05.637Z,75.43
2018-11-03T03:28:04.456Z,75.54
2018-11-03T03:29:05.555Z,75.59
2018-11-03T03:30:04.368Z,75.71
2018-11-03T03:31:04.329Z,75.95
2018-11-03T03:32:04.451Z,75.69
2018-11-03T03:33:04.694Z,75.82
2018-11-03T03:34:04.299Z,75.68
2018-11-03T03:35:04.423Z,75.65
2018-11-03T03:36:04.496Z,75.68
2018-11-03T03:37:04.461Z,75.68
2018-11-03T03:38:04.642Z,75.66
2018-11-03T03:39:04.302Z,75.67
2018-11-03T03:40:04.728Z,75.71
2018-11-03T03:41:04.325Z,75.77
2018-11-03T03:42:04.583Z,75.74
2018-11-03T03:43:04.351Z,75.57
2018-11-03T03:44:04.666Z,75.52
2018-11-03T03:45:04.590Z,75.58
2018-11-03T03:46:05.125Z,75.64
2018-11-03T03:47:04.435Z,75.66
2018-11-03T03:48:04.261Z,75.63
2018-11-03T03:49:04.494Z,75.53
2018-11-03T03:50:04.358Z,75.65
2018-11-03T03:51:04.301Z,75.65
2018-11-03T03:52:05.115Z,75.7
2018-11-03T03:53:04.324Z,75.55
2018-11-03T03:54:04.635Z,75.99
2018-11-03T03:55:04.542Z,75.94
2018-11-03T03:56:04.476Z,75.89
2018-11-03T03:57:04.644Z,75.75
2018-11-03T03:58:04.525Z,75.77
2018-11-03T03:59:04.713Z,75.76
2018-11-03T04:00:04.372Z,75.86
2018-11-03T04:01:04.654Z,75.8
2018-11-03T04:02:04.251Z,75.8
2018-11-03T04:03:04.594Z,75.8
2018-11-03T04:04:04.315Z,75.8
2018-11-03T04:05:04.276Z,75.65
2018-11-03T04:06:05.294Z,75.61
2018-11-03T04:07:04.340Z,75.86
2018-11-03T04:08:04.278Z,75.77
2018-11-03T04:09:04.298Z,75.86
2018-11-03T04:10:04.668Z,75.79
2018-11-03T04:11:04.328Z,75.81
2018-11-03T04:12:04.282Z,75.89
2018-11-03T04:13:04.245Z,75.81
2018-11-03T04:14:04.280Z,75.68
2018-11-03T04:15:04.636Z,75.69
2018-11-03T04:16:05.157Z,75.83
2018-11-03T04:17:04.279Z,75.91
2018-11-03T04:18:04.249Z,75.74
2018-11-03T04:19:04.285Z,75.72
2018-11-03T04:20:04.395Z,75.75
2018-11-03T04:21:04.506Z,75.75
2018-11-03T04:22:04.284Z,75.88
2018-11-03T04:23:04.376Z,75.77
2018-11-03T04:24:05.081Z,75.81
2018-11-03T04:25:04.328Z,76.02
2018-11-03T04:26:05.533Z,75.93
2018-11-03T04:27:04.471Z,75.86
2018-11-03T04:28:04.628Z,75.83
2018-11-03T04:29:04.280Z,76.2
2018-11-03T04:30:04.243Z,76.29
2018-11-03T04:31:04.196Z,76.54
2018-11-03T04:32:04.242Z,76.48
2018-11-03T04:33:04.229Z,76.8
2018-11-03T04:34:04.295Z,76.8
2018-11-03T04:35:04.308Z,77.18
2018-11-03T04:36:04.343Z,77.32
2018-11-03T04:37:04.341Z,77.28
2018-11-03T04:38:04.337Z,77.47
2018-11-03T04:39:04.217Z,77.62
2018-11-03T04:40:04.299Z,77.85
2018-11-03T04:41:04.234Z,77.84
2018-11-03T04:42:04.268Z,77.82
2018-11-03T04:43:04.213Z,77.93
2018-11-03T04:44:04.223Z,77.63
2018-11-03T04:45:04.585Z,77.3
2018-11-03T04:46:04.197Z,77.24
2018-11-03T04:47:04.216Z,78
2018-11-03T04:48:04.230Z,77.97
2018-11-03T04:49:04.185Z,78.1
2018-11-03T04:50:04.233Z,77.64
2018-11-03T04:51:04.208Z,77.67
2018-11-03T04:52:04.217Z,77.6
2018-11-03T04:53:04.772Z,77.74
2018-11-03T04:54:04.327Z,77.68
2018-11-03T04:55:05.238Z,77.58
2018-11-03T04:56:04.573Z,77.71
2018-11-03T04:57:04.342Z,77.93
2018-11-03T04:58:04.580Z,78
2018-11-03T04:59:04.154Z,78.37
2018-11-03T05:00:04.676Z,78.01
2018-11-03T05:01:04.271Z,77.37
2018-11-03T05:02:04.237Z,76.68
2018-11-03T05:03:04.404Z,76.52
2018-11-03T05:04:04.413Z,76.41
2018-11-03T05:05:04.681Z,76.46
2018-11-03T05:06:04.550Z,76.47
2018-11-03T05:07:04.199Z,76.46
2018-11-03T05:08:04.398Z,77.17
2018-11-03T05:09:04.223Z,77
2018-11-03T05:10:05.182Z,77
2018-11-03T05:11:05.026Z,76.59
2018-11-03T05:12:04.180Z,76.37
2018-11-03T05:13:04.154Z,76.37
2018-11-03T05:14:04.357Z,76.32
2018-11-03T05:15:04.465Z,76.32
2018-11-03T05:16:04.215Z,76.25
2018-11-03T05:17:04.592Z,76.14
2018-11-03T05:18:04.381Z,75.86
2018-11-03T05:19:04.157Z,76.01
2018-11-03T05:20:04.266Z,75.77
2018-11-03T05:21:04.420Z,76.12
2018-11-03T05:22:04.251Z,76.15
2018-11-03T05:23:04.401Z,76.25
2018-11-03T05:24:04.134Z,76.34
2018-11-03T05:25:04.288Z,76.64
2018-11-03T05:26:04.238Z,76.32
2018-11-03T05:27:04.142Z,76.36
2018-11-03T05:28:04.159Z,76.42
2018-11-03T05:29:04.217Z,76.64
2018-11-03T05:30:04.298Z,76.65
2018-11-03T05:31:04.662Z,76.65
2018-11-03T05:32:04.221Z,76.64
2018-11-03T05:33:04.125Z,76.59
2018-11-03T05:34:04.289Z,76.8
2018-11-03T05:35:04.540Z,76.88
2018-11-03T05:36:04.275Z,76.85
2018-11-03T05:37:04.128Z,76.86
2018-11-03T05:38:04.143Z,76.76
2018-11-03T05:39:04.594Z,76.9
2018-11-03T05:40:04.237Z,76.6
2018-11-03T05:41:04.320Z,76.91
2018-11-03T05:42:04.653Z,76.98
2018-11-03T05:43:04.280Z,76.99
2018-11-03T05:44:04.405Z,77.08
2018-11-03T05:45:04.146Z,77.49
2018-11-03T05:46:05.273Z,77.49
2018-11-03T05:47:04.301Z,77.26
2018-11-03T05:48:04.417Z,77.17
2018-11-03T05:49:04.493Z,77.16
2018-11-03T05:50:04.166Z,77.33
2018-11-03T05:51:04.834Z,77.19
2018-11-03T05:52:04.418Z,77.15
2018-11-03T05:53:04.215Z,77.28
2018-11-03T05:54:04.311Z,77.41
2018-11-03T05:55:04.517Z,77.38
2018-11-03T05:56:05.248Z,77.44
2018-11-03T05:57:04.572Z,77
2018-11-03T05:58:04.957Z,77.17
2018-11-03T05:59:04.971Z,77.1
2018-11-03T06:00:04.220Z,77.25
2018-11-03T06:01:04.157Z,77.38
2018-11-03T06:02:04.409Z,77.4
2018-11-03T06:03:04.472Z,77.37
2018-11-03T06:04:04.339Z,77.29
2018-11-03T06:05:04.151Z,77.28
2018-11-03T06:06:04.881Z,77.3
2018-11-03T06:07:04.109Z,77.24
2018-11-03T06:08:04.144Z,77.24
2018-11-03T06:09:04.113Z,77.42
2018-11-03T06:10:04.154Z,77.44
2018-11-03T06:11:04.101Z,77.31
2018-11-03T06:12:04.067Z,77.27
2018-11-03T06:13:04.167Z,77.22
2018-11-03T06:14:04.425Z,77.39
2018-11-03T06:15:04.308Z,77.35
2018-11-03T06:16:04.698Z,77.52
2018-11-03T06:17:04.072Z,77.43
2018-11-03T06:18:04.245Z,77.2
2018-11-03T06:19:04.083Z,77.26
2018-11-03T06:20:04.221Z,77.17
2018-11-03T06:21:04.092Z,77.13
2018-11-03T06:22:04.056Z,77.05
2018-11-03T06:23:04.705Z,77.18
2018-11-03T06:24:04.089Z,77.28
2018-11-03T06:25:04.278Z,77.31
2018-11-03T06:26:05.045Z,77.36
2018-11-03T06:27:04.186Z,77.39
2018-11-03T06:28:04.686Z,77.53
2018-11-03T06:29:04.493Z,77.51
2018-11-03T06:30:04.176Z,78.03
2018-11-03T06:31:04.107Z,78.12
2018-11-03T06:32:04.387Z,77.97
2018-11-03T06:33:04.210Z,78.16
2018-11-03T06:34:04.163Z,78.34
2018-11-03T06:35:05.013Z,78.4
2018-11-03T06:36:04.443Z,78.4
2018-11-03T06:37:04.450Z,78.33
2018-11-03T06:38:04.109Z,78.06
2018-11-03T06:39:05.094Z,77.91
2018-11-03T06:40:04.463Z,78.25
2018-11-03T06:41:04.139Z,78.07
2018-11-03T06:42:04.102Z,78.02
2018-11-03T06:43:04.117Z,78.02
2018-11-03T06:44:04.153Z,78.21
2018-11-03T06:45:04.102Z,78.19
2018-11-03T06:46:04.371Z,78.15
2018-11-03T06:47:04.345Z,78.01
2018-11-03T06:48:04.424Z,78.04
2018-11-03T06:49:04.082Z,77.64
2018-11-03T06:50:04.420Z,77.52
2018-11-03T06:51:04.074Z,77.51
2018-11-03T06:52:04.447Z,77.4
2018-11-03T06:53:04.255Z,77.41
2018-11-03T06:54:04.254Z,77.35
2018-11-03T06:55:04.366Z,77.26
2018-11-03T06:56:04.127Z,77.18
2018-11-03T06:57:04.489Z,77.48
2018-11-03T06:58:04.159Z,77.14
2018-11-03T06:59:04.026Z,77.34
2018-11-03T07:00:04.289Z,77.59
2018-11-03T07:01:04.177Z,77.63
2018-11-03T07:02:04.351Z,77.6
2018-11-03T07:03:04.088Z,77.65
2018-11-03T07:04:04.143Z,77.67
2018-11-03T07:05:04.409Z,77.53
2018-11-03T07:06:04.367Z,77.47
2018-11-03T07:07:04.060Z,77.42
2018-11-03T07:08:04.084Z,77.19
2018-11-03T07:09:04.159Z,77.21
2018-11-03T07:10:04.172Z,77.16
2018-11-03T07:11:04.039Z,77.49
2018-11-03T07:12:04.893Z,77.84
2018-11-03T07:13:04.491Z,78.03
2018-11-03T07:14:04.012Z,78.16
2018-11-03T07:15:04.583Z,78.61
2018-11-03T07:16:04.083Z,78.32
2018-11-03T07:17:04.540Z,78.42
2018-11-03T07:18:03.995Z,78.08
2018-11-03T07:19:03.995Z,77.89
2018-11-03T07:20:03.971Z,77.92
2018-11-03T07:21:04.088Z,78.01
2018-11-03T07:22:04.246Z,78.5
2018-11-03T07:23:03.997Z,78.53
2018-11-03T07:24:04.337Z,78.85
2018-11-03T07:25:04.307Z,78.6
2018-11-03T07:26:05.480Z,78.63
2018-11-03T07:27:04.129Z,78.66
2018-11-03T07:28:04.190Z,78.63
2018-11-03T07:29:04.090Z,78.82
2018-11-03T07:30:04.199Z,78.59
2018-11-03T07:31:04.248Z,78.57
2018-11-03T07:32:04.093Z,78.6
2018-11-03T07:33:04.127Z,78.73
2018-11-03T07:34:04.227Z,78.59
2018-11-03T07:35:04.398Z,78.87
2018-11-03T07:36:04.003Z,78.91
2018-11-03T07:37:04.247Z,78.89
2018-11-03T07:38:04.023Z,79.19
2018-11-03T07:39:04.005Z,79.05
2018-11-03T07:40:04.068Z,78.92
2018-11-03T07:41:04.518Z,78.9
2018-11-03T07:42:04.019Z,78.73
2018-11-03T07:43:04.051Z,78.66
2018-11-03T07:44:04.017Z,78.95
2018-11-03T07:45:04.992Z,78.89
2018-11-03T07:46:04.041Z,79.28
2018-11-03T07:47:04.051Z,79.06
2018-11-03T07:48:04.529Z,78.83
2018-11-03T07:49:05.540Z,78.74
2018-11-03T07:50:03.974Z,78.88
2018-11-03T07:51:04.100Z,78.56
2018-11-03T07:52:04.100Z,78.47
2018-11-03T07:53:04.256Z,78.44
2018-11-03T07:54:04.210Z,78.54
2018-11-03T07:55:05.264Z,78.74
2018-11-03T07:56:04.006Z,78.68
2018-11-03T07:57:04.023Z,78.68
2018-11-03T07:58:03.941Z,78.66
2018-11-03T07:59:04.205Z,78.49
2018-11-03T08:00:04.024Z,78.16
2018-11-03T08:01:04.218Z,78.34
2018-11-03T08:02:04.135Z,78.25
2018-11-03T08:03:04.028Z,77.8
2018-11-03T08:04:05.015Z,77.91
2018-11-03T08:05:04.289Z,78.03
2018-11-03T08:06:04.055Z,78.02
2018-11-03T08:07:04.255Z,78.18
2018-11-03T08:08:04.012Z,77.97
2018-11-03T08:09:04.568Z,78.12
2018-11-03T08:10:04.110Z,77.91
2018-11-03T08:11:04.595Z,78.25
2018-11-03T08:12:04.181Z,78.4
2018-11-03T08:13:04.209Z,78.38
2018-11-03T08:14:04.980Z,78.12
2018-11-03T08:15:04.074Z,78.26
2018-11-03T08:16:04.268Z,78.27
2018-11-03T08:17:04.317Z,78.22
2018-11-03T08:18:04.079Z,78.17
2018-11-03T08:19:04.240Z,77.89
2018-11-03T08:20:04.119Z,78
2018-11-03T08:21:03.907Z,77.93
2018-11-03T08:22:04.077Z,77.8
2018-11-03T08:23:04.099Z,77.69
2018-11-03T08:24:05.811Z,77.78
2018-11-03T08:25:03.912Z,77.78
2018-11-03T08:26:04.059Z,77.64
2018-11-03T08:27:04.090Z,77.55
2018-11-03T08:28:03.975Z,77.61
2018-11-03T08:29:04.096Z,77.76
2018-11-03T08:30:04.349Z,77.43
2018-11-03T08:31:04.037Z,77.43
2018-11-03T08:32:03.968Z,77.29
2018-11-03T08:33:04.463Z,77.17
2018-11-03T08:34:04.748Z,77.37
2018-11-03T08:35:04.132Z,76.58
2018-11-03T08:36:04.137Z,76.99
2018-11-03T08:37:04.053Z,76.84
2018-11-03T08:38:04.360Z,76.86
2018-11-03T08:39:04.042Z,76.77
2018-11-03T08:40:04.231Z,76.83
2018-11-03T08:41:03.970Z,76.82
2018-11-03T08:42:04.003Z,76.8
2018-11-03T08:43:04.094Z,76.67
2018-11-03T08:44:04.199Z,76.63
2018-11-03T08:45:04.044Z,76.5
2018-11-03T08:46:04.009Z,76.43
2018-11-03T08:47:03.931Z,76.47
2018-11-03T08:48:04.413Z,76.14
2018-11-03T08:49:04.547Z,76.16
2018-11-03T08:50:03.857Z,76.29
2018-11-03T08:51:04.109Z,76.49
2018-11-03T08:52:03.848Z,76.07
2018-11-03T08:53:04.146Z,76.23
2018-11-03T08:54:03.917Z,76.43
2018-11-03T08:55:05.263Z,76.3
2018-11-03T08:56:03.883Z,76.32
2018-11-03T08:57:03.854Z,75.94
2018-11-03T08:58:03.978Z,76.09
2018-11-03T08:59:03.909Z,76.13
2018-11-03T09:00:04.490Z,76.31
2018-11-03T09:01:03.971Z,76.04
2018-11-03T09:02:03.979Z,75.94
2018-11-03T09:03:04.122Z,75.92
2018-11-03T09:04:03.975Z,75.86
2018-11-03T09:05:04.921Z,75.61
2018-11-03T09:06:03.874Z,75.79
2018-11-03T09:07:05.114Z,75.75
2018-11-03T09:08:03.854Z,75.88
2018-11-03T09:09:40.543Z,75.65
2018-11-03T09:10:03.870Z,75.71
2018-11-03T09:11:04.192Z,75.67
2018-11-03T09:12:03.847Z,75.62
2018-11-03T09:13:04.052Z,75.32
2018-11-03T09:14:03.809Z,75.55
2018-11-03T09:15:05.783Z,75.24
2018-11-03T09:16:03.872Z,75.06
2018-11-03T09:17:04.222Z,75.07
2018-11-03T09:18:04.149Z,75.2
2018-11-03T09:19:03.902Z,74.81
2018-11-03T09:20:03.869Z,74.53
2018-11-03T09:21:03.835Z,74.53
2018-11-03T09:22:03.844Z,74.6
2018-11-03T09:23:03.829Z,74.05
2018-11-03T09:24:03.885Z,74.37
2018-11-03T09:25:03.850Z,74.38
2018-11-03T09:26:03.834Z,74.43
2018-11-03T09:27:03.872Z,74.49
2018-11-03T09:28:03.851Z,74.32
2018-11-03T09:29:03.988Z,74.6
2018-11-03T09:30:03.835Z,74.32
2018-11-03T09:31:03.909Z,74.67
2018-11-03T09:32:04.812Z,74.48
2018-11-03T09:33:03.858Z,73.96
2018-11-03T09:34:03.816Z,73.96
2018-11-03T09:35:03.817Z,73.95
2018-11-03T09:36:05.032Z,74.13
2018-11-03T09:37:03.930Z,74.08
2018-11-03T09:38:03.922Z,73.6
2018-11-03T09:39:04.432Z,73.62
2018-11-03T09:40:04.036Z,73.94
2018-11-03T09:41:03.848Z,73.82
2018-11-03T09:42:03.856Z,73.32
2018-11-03T09:43:04.594Z,73.58
2018-11-03T09:44:03.823Z,72.94
2018-11-03T09:45:04.760Z,72.86
2018-11-03T09:46:05.003Z,73.04
2018-11-03T09:47:03.992Z,72.85
2018-11-03T09:48:04.118Z,72.92
2018-11-03T09:49:04.376Z,73.26
2018-11-03T09:50:03.845Z,73.57
2018-11-03T09:51:04.213Z,73
2018-11-03T09:52:03.789Z,72.4
2018-11-03T09:53:03.789Z,72.69
2018-11-03T09:54:03.938Z,72.46
2018-11-03T09:55:03.825Z,72.28
2018-11-03T09:56:04.525Z,72.08
2018-11-03T09:57:04.100Z,71.94
2018-11-03T09:58:03.991Z,72.07
2018-11-03T09:59:03.813Z,71.95
2018-11-03T10:00:04.583Z,72.06
2018-11-03T10:01:04.112Z,72.51
2018-11-03T10:02:03.854Z,72.32
2018-11-03T10:03:04.107Z,72.28
2018-11-03T10:04:04.343Z,72.8
2018-11-03T10:05:04.037Z,72.71
2018-11-03T10:06:04.524Z,72.48
2018-11-03T10:07:03.801Z,71.79
2018-11-03T10:08:03.745Z,71.96
2018-11-03T10:09:04.070Z,71.76
2018-11-03T10:10:03.818Z,71.84
2018-11-03T10:11:03.738Z,71.95
2018-11-03T10:12:03.915Z,71.82
2018-11-03T10:13:03.825Z,71.85
2018-11-03T10:14:03.798Z,71.93
2018-11-03T10:15:03.746Z,71.32
2018-11-03T10:16:04.839Z,71.42
2018-11-03T10:17:04.560Z,71.15
2018-11-03T10:18:03.756Z,71.08
2018-11-03T10:19:04.150Z,71.04
2018-11-03T10:20:04.029Z,71.12
2018-11-03T10:21:03.780Z,70.84
2018-11-03T10:22:04.355Z,71.08
2018-11-03T10:23:04.795Z,70.82
2018-11-03T10:24:03.845Z,71.3
2018-11-03T10:25:04.009Z,70.85
2018-11-03T10:26:04.456Z,70.79
2018-11-03T10:27:03.857Z,70.3
2018-11-03T10:28:03.855Z,70.39
2018-11-03T10:29:03.802Z,70.67
2018-11-03T10:30:03.798Z,70.67
2018-11-03T10:31:03.787Z,70.13
2018-11-03T10:32:03.734Z,70.11
2018-11-03T10:33:03.783Z,70.73
2018-11-03T10:34:04.184Z,70.63
2018-11-03T10:35:04.045Z,70.3
2018-11-03T10:36:04.327Z,69.94
2018-11-03T10:37:03.926Z,69.96
2018-11-03T10:38:03.810Z,69.9
2018-11-03T10:39:03.732Z,70.16
2018-11-03T10:40:03.691Z,69.91
2018-11-03T10:41:03.842Z,69.69
2018-11-03T10:42:04.164Z,69.63
2018-11-03T10:43:03.740Z,69.53
2018-11-03T10:44:03.691Z,69.12
2018-11-03T10:45:03.672Z,69.23
2018-11-03T10:46:03.935Z,69.53
2018-11-03T10:47:03.884Z,69.63
2018-11-03T10:48:03.673Z,69.24
2018-11-03T10:49:03.723Z,69.5
2018-11-03T10:50:03.695Z,69.22
2018-11-03T10:51:03.717Z,68.56
2018-11-03T10:52:03.720Z,68.72
2018-11-03T10:53:03.780Z,69.07
2018-11-03T10:54:03.705Z,68.78
2018-11-03T10:55:03.680Z,68.93
2018-11-03T10:56:03.670Z,68.8
2018-11-03T10:57:04.870Z,68.79
2018-11-03T10:58:03.675Z,68.64
2018-11-03T10:59:03.679Z,69.16
2018-11-03T11:00:03.727Z,69.13
2018-11-03T11:01:03.646Z,69.23
2018-11-03T11:02:03.938Z,68.81
2018-11-03T11:03:03.675Z,68.79
2018-11-03T11:04:03.798Z,68.8
2018-11-03T11:05:03.810Z,68.77
2018-11-03T11:06:03.956Z,68.9
2018-11-03T11:07:04.941Z,69.06
2018-11-03T11:08:03.856Z,69.19
2018-11-03T11:09:04.058Z,69.19
2018-11-03T11:10:03.666Z,69.67
2018-11-03T11:11:03.851Z,69.25
2018-11-03T11:12:04.332Z,68.62
2018-11-03T11:13:03.640Z,68.64
2018-11-03T11:14:04.449Z,68.96
2018-11-03T11:15:03.713Z,68.89
2018-11-03T11:16:03.977Z,68.8
2018-11-03T11:17:05.303Z,68.82
2018-11-03T11:18:03.758Z,68.43
2018-11-03T11:19:03.718Z,68.19
2018-11-03T11:20:03.729Z,68.53
2018-11-03T11:21:03.693Z,69.04
2018-11-03T11:22:03.761Z,68.42
2018-11-03T11:23:03.651Z,67.51
2018-11-03T11:24:04.298Z,67.62
2018-11-03T11:25:04.846Z,67.75
2018-11-03T11:26:03.639Z,67.86
2018-11-03T11:27:04.973Z,68.2
2018-11-03T11:28:03.769Z,67.96
2018-11-03T11:29:03.749Z,68.3
2018-11-03T11:30:03.766Z,67.78
2018-11-03T11:31:03.741Z,67.74
2018-11-03T11:32:03.689Z,67.71
2018-11-03T11:33:04.444Z,67.52
2018-11-03T11:34:04.065Z,67.4
2018-11-03T11:35:03.680Z,67.58
2018-11-03T11:36:03.706Z,68.05
2018-11-03T11:37:04.214Z,67.89
2018-11-03T11:38:03.743Z,67.72
2018-11-03T11:39:04.416Z,68.16
2018-11-03T11:40:03.672Z,67.87
2018-11-03T11:41:03.876Z,68.12
2018-11-03T11:42:03.881Z,68.04
2018-11-03T11:43:04.085Z,67.77
2018-11-03T11:44:03.767Z,67.98
2018-11-03T11:45:03.681Z,67.85
2018-11-03T11:46:03.711Z,67.82
2018-11-03T11:47:04.188Z,67.81
2018-11-03T11:48:03.721Z,67.99
2018-11-03T11:49:18.514Z,67.62
2018-11-03T11:50:03.635Z,67.64
2018-11-03T11:51:03.708Z,67.62
2018-11-03T11:52:03.970Z,67.44
2018-11-03T11:53:03.795Z,67.5
2018-11-03T11:54:04.089Z,67.4
2018-11-03T11:55:04.542Z,67.8
2018-11-03T11:56:04.067Z,67.59
2018-11-03T11:57:05.397Z,67.76
2018-11-03T11:58:09.345Z,67.58
2018-11-03T11:59:03.906Z,67.39
2018-11-03T12:00:03.669Z,67.42
2018-11-03T12:01:03.631Z,67
2018-11-03T12:02:03.804Z,67.19
2018-11-03T12:03:03.764Z,67.35
2018-11-03T12:04:03.698Z,67.33
2018-11-03T12:05:03.674Z,67.41
2018-11-03T12:06:03.829Z,66.9
2018-11-03T12:07:03.816Z,67.04
2018-11-03T12:08:03.754Z,66.7
2018-11-03T12:09:03.660Z,66.97
2018-11-03T12:10:04.665Z,66.86
2018-11-03T12:11:03.616Z,66.62
2018-11-03T12:12:03.728Z,67.1
2018-11-03T12:13:03.794Z,66.81
2018-11-03T12:14:03.811Z,66.67
2018-11-03T12:15:03.899Z,66.72
2018-11-03T12:16:04.001Z,67.09
2018-11-03T12:17:03.693Z,67.05
2018-11-03T12:18:03.608Z,67.29
2018-11-03T12:19:03.763Z,66.68
2018-11-03T12:20:03.596Z,66.39
2018-11-03T12:21:03.636Z,66.55
2018-11-03T12:22:03.620Z,66.82
2018-11-03T12:23:03.622Z,66.85
2018-11-03T12:24:03.580Z,66.52
2018-11-03T12:25:03.597Z,66.51
2018-11-03T12:26:03.630Z,66.41
2018-11-03T12:27:03.762Z,66.85
2018-11-03T12:28:03.602Z,66.89
2018-11-03T12:29:03.620Z,66.82
2018-11-03T12:30:03.524Z,66.48
2018-11-03T12:31:03.594Z,66.87
2018-11-03T12:32:03.572Z,66.38
2018-11-03T12:33:03.709Z,66.3
2018-11-03T12:34:03.558Z,66.57
2018-11-03T12:35:03.591Z,66.4
2018-11-03T12:36:03.727Z,66.51
2018-11-03T12:37:04.000Z,66.23
2018-11-03T12:38:03.678Z,66.34
2018-11-03T12:39:03.566Z,66.51
2018-11-03T12:40:03.690Z,66.39
2018-11-03T12:41:03.803Z,66.32
2018-11-03T12:42:03.677Z,66
2018-11-03T12:43:03.569Z,66.06
2018-11-03T12:44:03.864Z,66.35
2018-11-03T12:45:03.657Z,65.99
2018-11-03T12:46:03.797Z,66.12
2018-11-03T12:47:03.635Z,65.75
2018-11-03T12:48:04.001Z,66.35
2018-11-03T12:49:03.690Z,65.93
2018-11-03T12:50:03.658Z,65.84
2018-11-03T12:51:03.828Z,66
2018-11-03T12:52:03.588Z,66.12
2018-11-03T12:53:03.712Z,65.61
2018-11-03T12:54:03.904Z,65.77
2018-11-03T12:55:03.566Z,65.52
2018-11-03T12:56:03.783Z,65.97